AIB359 EHAM-LBSF
Flight info
| Callsign | AIB359 |
|---|---|
| Flight time | 2h 26m |
| Altitude | 39000 |
| Route | EHAM/24 RENDI2S EDUPO Z739 MISGO DCT TIVUN DCT ESAMA DCT OSBIT DCT TENLO DCT LAMSI DCT PEROL DCT SASAL DCT SOGMO DCT BABIT DCT BGD DCT RAVAK DCT NISVA NISVA4D LBSF/09 |
| Aircraft | A359/H-SDE2E3GHIJ3J4J5LM1ORWXY/LB1D1 |
Departure
| Time | 2026-05-04 12:08 |
|---|---|
| Airport | Amsterdam Airport Schiphol (EHAM) |
Arrival
| Time | 2026-05-04 14:34 |
|---|---|
| Airport | Sofia Airport (LBSF) |
| Time | Latitude | Longitude | Altitude | Speed | Heading |
|---|---|---|---|---|---|
| 2026-05-04 11:31 | 52.31220 | 4.77377 | 5 ft | 0 kts | 183° |
| 2026-05-04 11:58 | 52.31222 | 4.77377 | 5 ft | 2 kts | 183° |
| 2026-05-04 11:58 | 52.31246 | 4.77377 | 5 ft | 4 kts | 167° |
| 2026-05-04 11:58 | 52.31269 | 4.77363 | 9 ft | 4 kts | 141° |
| 2026-05-04 11:59 | 52.31285 | 4.77336 | 8 ft | 4 kts | 111° |
| 2026-05-04 11:59 | 52.31290 | 4.77301 | 6 ft | 1 kts | 93° |
| 2026-05-04 12:03 | 52.31290 | 4.77316 | 5 ft | 6 kts | 92° |
| 2026-05-04 12:03 | 52.31288 | 4.77377 | 5 ft | 1 kts | 92° |
| 2026-05-04 12:04 | 52.31284 | 4.77433 | 5 ft | 8 kts | 104° |
| 2026-05-04 12:04 | 52.31237 | 4.77493 | 5 ft | 10 kts | 168° |
| 2026-05-04 12:04 | 52.31151 | 4.77496 | 5 ft | 15 kts | 183° |
| 2026-05-04 12:04 | 52.31035 | 4.77487 | 5 ft | 19 kts | 183° |
| 2026-05-04 12:05 | 52.30911 | 4.77476 | 5 ft | 18 kts | 184° |
| 2026-05-04 12:05 | 52.30780 | 4.77463 | 5 ft | 13 kts | 183° |
| 2026-05-04 12:05 | 52.30685 | 4.77461 | 5 ft | 16 kts | 172° |
| 2026-05-04 12:05 | 52.30577 | 4.77535 | 5 ft | 14 kts | 152° |
| 2026-05-04 12:06 | 52.30486 | 4.77612 | 5 ft | 12 kts | 153° |
| 2026-05-04 12:06 | 52.30438 | 4.77638 | 5 ft | 6 kts | 185° |
| 2026-05-04 12:06 | 52.30392 | 4.77577 | 4 ft | 11 kts | 231° |
| 2026-05-04 12:06 | 52.30369 | 4.77519 | 4 ft | 0 kts | 238° |
| 2026-05-04 12:07 | 52.30321 | 4.77396 | 4 ft | 40 kts | 238° |
| 2026-05-04 12:07 | 52.30007 | 4.76577 | 4 ft | 127 kts | 238° |
| 2026-05-04 12:07 | 52.29500 | 4.75263 | 192 ft | 174 kts | 238° |
| 2026-05-04 12:08 | 52.28802 | 4.73547 | 1110 ft | 179 kts | 237° |
| 2026-05-04 12:08 | 52.27906 | 4.71968 | 1846 ft | 201 kts | 217° |
| 2026-05-04 12:08 | 52.26528 | 4.71286 | 2450 ft | 217 kts | 180° |
| 2026-05-04 12:08 | 52.25070 | 4.71991 | 3321 ft | 223 kts | 153° |
| 2026-05-04 12:09 | 52.23747 | 4.73345 | 4204 ft | 226 kts | 147° |
| 2026-05-04 12:09 | 52.22432 | 4.74798 | 5006 ft | 231 kts | 147° |
| 2026-05-04 12:09 | 52.21113 | 4.76350 | 5640 ft | 237 kts | 140° |
| 2026-05-04 12:09 | 52.20069 | 4.78483 | 6260 ft | 247 kts | 123° |
| 2026-05-04 12:10 | 52.19158 | 4.80998 | 6695 ft | 267 kts | 121° |
| 2026-05-04 12:10 | 52.18232 | 4.83674 | 7388 ft | 274 kts | 120° |
| 2026-05-04 12:10 | 52.17523 | 4.86534 | 8125 ft | 280 kts | 102° |
| 2026-05-04 12:10 | 52.17571 | 4.89708 | 8934 ft | 284 kts | 78° |
| 2026-05-04 12:11 | 52.18119 | 4.92816 | 9762 ft | 288 kts | 73° |
| 2026-05-04 12:11 | 52.18745 | 4.95965 | 10395 ft | 299 kts | 72° |
| 2026-05-04 12:11 | 52.19400 | 4.99294 | 10720 ft | 318 kts | 73° |
| 2026-05-04 12:11 | 52.20082 | 5.02824 | 11010 ft | 337 kts | 73° |
| 2026-05-04 12:12 | 52.20789 | 5.06527 | 11426 ft | 349 kts | 73° |
| 2026-05-04 12:12 | 52.21515 | 5.10345 | 12000 ft | 355 kts | 73° |
| 2026-05-04 12:12 | 52.22252 | 5.14234 | 12579 ft | 361 kts | 73° |
| 2026-05-04 12:12 | 52.22997 | 5.18183 | 13163 ft | 367 kts | 73° |
| 2026-05-04 12:13 | 52.23506 | 5.22275 | 13742 ft | 371 kts | 86° |
| 2026-05-04 12:14 | 52.14773 | 5.47918 | 18024 ft | 390 kts | 128° |
| 2026-05-04 12:15 | 52.13190 | 5.51516 | 18541 ft | 393 kts | 128° |
| 2026-05-04 12:15 | 52.11614 | 5.55105 | 19052 ft | 396 kts | 128° |
| 2026-05-04 12:15 | 52.10012 | 5.58764 | 19550 ft | 398 kts | 128° |
| 2026-05-04 12:15 | 52.08402 | 5.62440 | 20072 ft | 400 kts | 128° |
| 2026-05-04 12:16 | 52.06775 | 5.66132 | 20581 ft | 402 kts | 129° |
| 2026-05-04 12:16 | 52.05029 | 5.69694 | 21084 ft | 403 kts | 133° |
| 2026-05-04 12:16 | 52.03198 | 5.73150 | 21581 ft | 405 kts | 134° |
| 2026-05-04 12:16 | 52.01346 | 5.76596 | 22062 ft | 407 kts | 135° |
| 2026-05-04 12:17 | 51.99469 | 5.80076 | 22576 ft | 409 kts | 135° |
| 2026-05-04 12:17 | 51.97587 | 5.83562 | 23057 ft | 412 kts | 135° |
| 2026-05-04 12:17 | 51.95700 | 5.87068 | 23516 ft | 414 kts | 135° |
| 2026-05-04 12:17 | 51.93822 | 5.90561 | 23882 ft | 417 kts | 135° |
| 2026-05-04 12:18 | 51.91910 | 5.94118 | 24269 ft | 420 kts | 135° |
| 2026-05-04 12:18 | 51.89981 | 5.97705 | 24665 ft | 423 kts | 136° |
| 2026-05-04 12:18 | 51.88041 | 6.01312 | 25060 ft | 425 kts | 136° |
| 2026-05-04 12:18 | 51.86096 | 6.04924 | 25468 ft | 428 kts | 136° |
| 2026-05-04 12:19 | 51.84129 | 6.08577 | 25897 ft | 430 kts | 136° |
| 2026-05-04 12:19 | 51.82144 | 6.12241 | 26351 ft | 433 kts | 136° |
| 2026-05-04 12:19 | 51.80147 | 6.15902 | 26820 ft | 436 kts | 137° |
| 2026-05-04 12:19 | 51.78130 | 6.19587 | 27305 ft | 439 kts | 137° |
| 2026-05-04 12:20 | 51.76095 | 6.23301 | 27815 ft | 442 kts | 137° |
| 2026-05-04 12:20 | 51.74078 | 6.26985 | 28333 ft | 445 kts | 137° |
| 2026-05-04 12:20 | 51.72022 | 6.30728 | 28853 ft | 448 kts | 137° |
| 2026-05-04 12:20 | 51.69946 | 6.34502 | 29407 ft | 452 kts | 137° |
| 2026-05-04 12:21 | 51.67852 | 6.38301 | 29932 ft | 455 kts | 137° |
| 2026-05-04 12:21 | 51.65736 | 6.42136 | 30402 ft | 459 kts | 137° |
| 2026-05-04 12:21 | 51.63600 | 6.46004 | 30868 ft | 462 kts | 137° |
| 2026-05-04 12:21 | 51.61455 | 6.49893 | 31313 ft | 466 kts | 137° |
| 2026-05-04 12:22 | 51.59295 | 6.53800 | 31760 ft | 469 kts | 137° |
| 2026-05-04 12:22 | 51.57112 | 6.57739 | 32200 ft | 472 kts | 137° |
| 2026-05-04 12:22 | 51.54922 | 6.61683 | 32651 ft | 475 kts | 138° |
| 2026-05-04 12:22 | 51.52706 | 6.65667 | 33056 ft | 478 kts | 138° |
| 2026-05-04 12:23 | 51.50480 | 6.69666 | 33468 ft | 481 kts | 138° |
| 2026-05-04 12:23 | 51.48244 | 6.73674 | 33847 ft | 484 kts | 138° |
| 2026-05-04 12:23 | 51.46009 | 6.77678 | 34195 ft | 487 kts | 138° |
| 2026-05-04 12:23 | 51.43741 | 6.81734 | 34615 ft | 487 kts | 138° |
| 2026-05-04 12:24 | 51.41503 | 6.85765 | 35096 ft | 487 kts | 136° |
| 2026-05-04 12:24 | 51.39409 | 6.90107 | 35548 ft | 491 kts | 131° |
| 2026-05-04 12:24 | 51.37423 | 6.94559 | 36014 ft | 492 kts | 130° |
| 2026-05-04 12:24 | 51.35476 | 6.99052 | 36468 ft | 492 kts | 130° |
| 2026-05-04 12:25 | 51.33538 | 7.03588 | 36957 ft | 492 kts | 129° |
| 2026-05-04 12:25 | 51.31621 | 7.08095 | 37388 ft | 491 kts | 129° |
| 2026-05-04 12:25 | 51.29699 | 7.12607 | 37841 ft | 491 kts | 129° |
| 2026-05-04 12:25 | 51.27771 | 7.17119 | 38308 ft | 490 kts | 129° |
| 2026-05-04 12:26 | 51.25846 | 7.21608 | 38724 ft | 490 kts | 129° |
| 2026-05-04 12:26 | 51.23908 | 7.26109 | 38935 ft | 492 kts | 129° |
| 2026-05-04 12:26 | 51.20059 | 7.35019 | 38986 ft | 491 kts | 129° |
| 2026-05-04 12:27 | 51.16805 | 7.42523 | 38977 ft | 491 kts | 129° |
| 2026-05-04 12:27 | 51.12297 | 7.52885 | 38978 ft | 491 kts | 129° |
| 2026-05-04 12:28 | 51.08398 | 7.61816 | 38982 ft | 490 kts | 129° |
| 2026-05-04 12:28 | 51.05161 | 7.69207 | 38983 ft | 490 kts | 129° |
| 2026-05-04 12:29 | 51.00617 | 7.79547 | 38986 ft | 490 kts | 129° |
| 2026-05-04 12:29 | 50.97369 | 7.86915 | 38986 ft | 490 kts | 129° |
| 2026-05-04 12:30 | 50.93438 | 7.95729 | 38986 ft | 488 kts | 131° |
| 2026-05-04 12:30 | 50.88913 | 8.03622 | 38992 ft | 483 kts | 139° |
| 2026-05-04 12:31 | 50.84115 | 8.11086 | 38992 ft | 482 kts | 140° |
| 2026-05-04 12:31 | 50.79279 | 8.18403 | 38989 ft | 481 kts | 140° |
| 2026-05-04 12:32 | 50.72015 | 8.29371 | 38993 ft | 481 kts | 140° |
| 2026-05-04 12:33 | 50.67182 | 8.36674 | 38988 ft | 481 kts | 140° |
| 2026-05-04 12:33 | 50.62344 | 8.43969 | 38987 ft | 482 kts | 140° |
| 2026-05-04 12:34 | 50.57495 | 8.51259 | 38986 ft | 482 kts | 140° |
| 2026-05-04 12:34 | 50.52670 | 8.58488 | 38982 ft | 482 kts | 140° |
| 2026-05-04 12:35 | 50.47803 | 8.65758 | 38985 ft | 483 kts | 140° |
| 2026-05-04 12:35 | 50.44535 | 8.70627 | 38982 ft | 483 kts | 140° |
| 2026-05-04 12:36 | 50.33423 | 8.88960 | 38982 ft | 493 kts | 124° |
| 2026-05-04 12:37 | 50.30306 | 8.98559 | 38982 ft | 497 kts | 118° |
| 2026-05-04 12:37 | 50.27459 | 9.08459 | 38983 ft | 497 kts | 117° |
| 2026-05-04 12:38 | 50.24644 | 9.18336 | 38989 ft | 497 kts | 118° |
| 2026-05-04 12:38 | 50.21774 | 9.28233 | 38991 ft | 497 kts | 118° |
| 2026-05-04 12:39 | 50.18887 | 9.38069 | 38990 ft | 497 kts | 118° |
| 2026-05-04 12:39 | 50.15996 | 9.47860 | 38992 ft | 497 kts | 118° |
| 2026-05-04 12:40 | 50.13089 | 9.57670 | 38992 ft | 497 kts | 118° |
| 2026-05-04 12:40 | 50.10187 | 9.67428 | 38990 ft | 497 kts | 118° |
| 2026-05-04 12:41 | 50.07243 | 9.77111 | 38986 ft | 495 kts | 121° |
| 2026-05-04 12:41 | 50.03688 | 9.86255 | 38988 ft | 493 kts | 125° |
| 2026-05-04 12:42 | 49.99964 | 9.95205 | 38984 ft | 493 kts | 126° |
| 2026-05-04 12:42 | 49.96180 | 10.04090 | 38984 ft | 493 kts | 127° |
| 2026-05-04 12:43 | 49.92390 | 10.12957 | 38987 ft | 493 kts | 127° |
| 2026-05-04 12:43 | 49.88600 | 10.21815 | 38982 ft | 493 kts | 127° |
| 2026-05-04 12:44 | 49.84830 | 10.30607 | 38985 ft | 493 kts | 127° |
| 2026-05-04 12:44 | 49.81029 | 10.39447 | 38985 ft | 493 kts | 127° |
| 2026-05-04 12:45 | 49.77219 | 10.48278 | 38988 ft | 493 kts | 127° |
| 2026-05-04 12:45 | 49.73396 | 10.57108 | 38980 ft | 493 kts | 127° |
| 2026-05-04 12:46 | 49.69582 | 10.65887 | 38983 ft | 493 kts | 127° |
| 2026-05-04 12:46 | 49.65751 | 10.74677 | 38984 ft | 493 kts | 127° |
| 2026-05-04 12:47 | 49.61937 | 10.83399 | 38993 ft | 493 kts | 127° |
| 2026-05-04 12:47 | 49.58096 | 10.92155 | 38995 ft | 493 kts | 127° |
| 2026-05-04 12:48 | 49.54246 | 11.00900 | 39003 ft | 492 kts | 127° |
| 2026-05-04 12:48 | 49.50786 | 11.10025 | 39001 ft | 495 kts | 121° |
| 2026-05-04 12:49 | 49.47603 | 11.19433 | 38993 ft | 496 kts | 120° |
| 2026-05-04 12:49 | 49.44499 | 11.28872 | 38992 ft | 496 kts | 120° |
| 2026-05-04 12:50 | 49.41399 | 11.38295 | 38990 ft | 497 kts | 120° |
| 2026-05-04 12:50 | 49.38264 | 11.47761 | 38984 ft | 497 kts | 120° |
| 2026-05-04 12:51 | 49.35119 | 11.57199 | 38983 ft | 497 kts | 120° |
| 2026-05-04 12:51 | 49.31963 | 11.66636 | 38981 ft | 496 kts | 120° |
| 2026-05-04 12:52 | 49.29341 | 11.74449 | 38980 ft | 496 kts | 120° |
| 2026-05-04 12:52 | 49.26174 | 11.83857 | 38976 ft | 496 kts | 120° |
| 2026-05-04 12:53 | 49.23012 | 11.93211 | 38974 ft | 495 kts | 120° |
| 2026-05-04 12:53 | 49.19832 | 12.02583 | 38972 ft | 495 kts | 120° |
| 2026-05-04 12:54 | 49.16650 | 12.11926 | 38974 ft | 495 kts | 120° |
| 2026-05-04 12:54 | 49.13460 | 12.21265 | 38967 ft | 495 kts | 120° |
| 2026-05-04 12:55 | 49.10274 | 12.30557 | 38970 ft | 494 kts | 121° |
| 2026-05-04 12:55 | 49.07080 | 12.39842 | 38973 ft | 494 kts | 121° |
| 2026-05-04 12:56 | 49.03902 | 12.49038 | 38967 ft | 494 kts | 121° |
| 2026-05-04 12:56 | 49.00687 | 12.58310 | 38970 ft | 494 kts | 121° |
| 2026-05-04 12:57 | 48.97469 | 12.67558 | 38969 ft | 494 kts | 121° |
| 2026-05-04 12:57 | 48.94245 | 12.76795 | 38972 ft | 494 kts | 121° |
| 2026-05-04 12:58 | 48.91034 | 12.85960 | 38972 ft | 494 kts | 121° |
| 2026-05-04 12:58 | 48.87785 | 12.95197 | 38969 ft | 494 kts | 121° |
| 2026-05-04 12:59 | 48.84536 | 13.04400 | 38967 ft | 494 kts | 121° |
| 2026-05-04 12:59 | 48.81285 | 13.13574 | 38965 ft | 495 kts | 121° |
| 2026-05-04 13:00 | 48.78018 | 13.22771 | 38972 ft | 494 kts | 121° |
| 2026-05-04 13:00 | 48.74764 | 13.31893 | 38966 ft | 494 kts | 121° |
| 2026-05-04 13:01 | 48.71480 | 13.41064 | 38966 ft | 494 kts | 121° |
| 2026-05-04 13:01 | 48.68191 | 13.50223 | 38966 ft | 494 kts | 121° |
| 2026-05-04 13:02 | 48.64799 | 13.59264 | 38967 ft | 493 kts | 124° |
| 2026-05-04 13:02 | 48.61059 | 13.67944 | 38967 ft | 493 kts | 126° |
| 2026-05-04 13:03 | 48.57217 | 13.76518 | 38968 ft | 493 kts | 126° |
| 2026-05-04 13:03 | 48.53354 | 13.85008 | 38967 ft | 492 kts | 126° |
| 2026-05-04 13:04 | 48.49468 | 13.93522 | 38960 ft | 492 kts | 126° |
| 2026-05-04 13:04 | 48.45587 | 14.02019 | 38957 ft | 492 kts | 126° |
| 2026-05-04 13:05 | 48.41693 | 14.10523 | 38946 ft | 492 kts | 126° |
| 2026-05-04 13:05 | 48.37799 | 14.18999 | 38943 ft | 492 kts | 126° |
| 2026-05-04 13:06 | 48.33895 | 14.27470 | 38944 ft | 492 kts | 126° |
| 2026-05-04 13:06 | 48.29991 | 14.35919 | 38938 ft | 492 kts | 126° |
| 2026-05-04 13:07 | 48.26094 | 14.44321 | 38956 ft | 492 kts | 127° |
| 2026-05-04 13:07 | 48.22179 | 14.52748 | 38956 ft | 492 kts | 126° |
| 2026-05-04 13:08 | 48.18268 | 14.61167 | 38956 ft | 492 kts | 126° |
| 2026-05-04 13:08 | 48.14339 | 14.69599 | 38960 ft | 492 kts | 126° |
| 2026-05-04 13:09 | 48.10410 | 14.78001 | 38957 ft | 493 kts | 126° |
| 2026-05-04 13:09 | 48.06494 | 14.86351 | 38959 ft | 493 kts | 126° |
| 2026-05-04 13:10 | 48.02542 | 14.94751 | 38959 ft | 493 kts | 126° |
| 2026-05-04 13:10 | 47.98588 | 15.03128 | 38963 ft | 494 kts | 126° |
| 2026-05-04 13:11 | 47.94620 | 15.11512 | 38965 ft | 494 kts | 126° |
| 2026-05-04 13:11 | 47.90647 | 15.19879 | 38968 ft | 495 kts | 126° |
| 2026-05-04 13:12 | 47.86664 | 15.28242 | 38977 ft | 495 kts | 127° |
| 2026-05-04 13:12 | 47.82674 | 15.36593 | 38982 ft | 495 kts | 127° |
| 2026-05-04 13:13 | 47.78664 | 15.44962 | 38988 ft | 496 kts | 127° |
| 2026-05-04 13:13 | 47.74675 | 15.53262 | 38990 ft | 496 kts | 127° |
| 2026-05-04 13:14 | 47.70652 | 15.61605 | 38994 ft | 497 kts | 127° |
| 2026-05-04 13:14 | 47.66622 | 15.69939 | 38992 ft | 497 kts | 127° |
| 2026-05-04 13:15 | 47.62589 | 15.78252 | 38996 ft | 497 kts | 127° |
| 2026-05-04 13:15 | 47.58544 | 15.86569 | 38998 ft | 498 kts | 127° |
| 2026-05-04 13:16 | 47.54485 | 15.94886 | 39000 ft | 498 kts | 127° |
| 2026-05-04 13:16 | 47.50438 | 16.03151 | 39005 ft | 499 kts | 127° |
| 2026-05-04 13:17 | 47.46367 | 16.11440 | 39011 ft | 499 kts | 127° |
| 2026-05-04 13:17 | 47.42265 | 16.19770 | 39011 ft | 499 kts | 127° |
| 2026-05-04 13:18 | 47.38173 | 16.28053 | 39004 ft | 499 kts | 127° |
| 2026-05-04 13:18 | 47.34073 | 16.36328 | 39012 ft | 498 kts | 127° |
| 2026-05-04 13:19 | 47.30002 | 16.44521 | 39014 ft | 498 kts | 127° |
| 2026-05-04 13:19 | 47.25845 | 16.52687 | 39015 ft | 498 kts | 129° |
| 2026-05-04 13:20 | 47.21475 | 16.60594 | 39018 ft | 498 kts | 130° |
| 2026-05-04 13:20 | 47.17066 | 16.68472 | 39016 ft | 498 kts | 129° |
| 2026-05-04 13:21 | 47.12693 | 16.76357 | 39021 ft | 498 kts | 129° |
| 2026-05-04 13:21 | 47.08353 | 16.84215 | 39023 ft | 498 kts | 129° |
| 2026-05-04 13:22 | 47.03990 | 16.92101 | 39028 ft | 498 kts | 129° |
| 2026-05-04 13:22 | 46.99627 | 16.99972 | 39033 ft | 498 kts | 129° |
| 2026-05-04 13:23 | 46.95244 | 17.07846 | 39040 ft | 498 kts | 129° |
| 2026-05-04 13:23 | 46.90855 | 17.15705 | 39043 ft | 498 kts | 129° |
| 2026-05-04 13:24 | 46.86466 | 17.23545 | 39047 ft | 497 kts | 129° |
| 2026-05-04 13:24 | 46.82109 | 17.31304 | 39047 ft | 497 kts | 129° |
| 2026-05-04 13:25 | 46.75528 | 17.42983 | 39050 ft | 496 kts | 129° |
| 2026-05-04 13:25 | 46.71137 | 17.50748 | 39054 ft | 496 kts | 129° |
| 2026-05-04 13:26 | 46.66741 | 17.58501 | 39055 ft | 496 kts | 129° |
| 2026-05-04 13:26 | 46.62341 | 17.66240 | 39064 ft | 495 kts | 129° |
| 2026-05-04 13:27 | 46.58014 | 17.73962 | 39063 ft | 495 kts | 128° |
| 2026-05-04 13:27 | 46.53769 | 17.81842 | 39063 ft | 495 kts | 128° |
| 2026-05-04 13:28 | 46.49539 | 17.89729 | 39066 ft | 494 kts | 128° |
| 2026-05-04 13:28 | 46.45314 | 17.97592 | 39065 ft | 494 kts | 128° |
| 2026-05-04 13:29 | 46.41074 | 18.05455 | 39068 ft | 494 kts | 128° |
| 2026-05-04 13:29 | 46.36825 | 18.13309 | 39068 ft | 494 kts | 128° |
| 2026-05-04 13:30 | 46.32605 | 18.21087 | 39073 ft | 494 kts | 128° |
| 2026-05-04 13:30 | 46.28352 | 18.28902 | 39082 ft | 494 kts | 128° |
| 2026-05-04 13:31 | 46.24089 | 18.36715 | 39082 ft | 494 kts | 128° |
| 2026-05-04 13:31 | 46.19821 | 18.44517 | 39086 ft | 495 kts | 128° |
| 2026-05-04 13:32 | 46.15548 | 18.52305 | 39083 ft | 495 kts | 128° |
| 2026-05-04 13:32 | 46.11288 | 18.60047 | 39088 ft | 495 kts | 128° |
| 2026-05-04 13:33 | 46.07009 | 18.67805 | 39082 ft | 494 kts | 128° |
| 2026-05-04 13:33 | 46.02723 | 18.75552 | 39078 ft | 494 kts | 128° |
| 2026-05-04 13:34 | 45.98433 | 18.83283 | 39085 ft | 494 kts | 128° |
| 2026-05-04 13:34 | 45.94122 | 18.90979 | 39079 ft | 495 kts | 130° |
| 2026-05-04 13:35 | 45.87542 | 19.00185 | 39082 ft | 496 kts | 137° |
| 2026-05-04 13:36 | 45.81553 | 19.07846 | 39085 ft | 497 kts | 137° |
| 2026-05-04 13:36 | 45.77202 | 19.13330 | 39089 ft | 497 kts | 137° |
| 2026-05-04 13:37 | 45.72004 | 19.19881 | 39086 ft | 497 kts | 137° |
| 2026-05-04 13:37 | 45.66812 | 19.26427 | 39090 ft | 497 kts | 137° |
| 2026-05-04 13:38 | 45.61621 | 19.32962 | 39087 ft | 498 kts | 137° |
| 2026-05-04 13:38 | 45.56457 | 19.39447 | 39089 ft | 498 kts | 137° |
| 2026-05-04 13:39 | 45.51244 | 19.45976 | 39093 ft | 498 kts | 137° |
| 2026-05-04 13:39 | 45.46016 | 19.52506 | 39093 ft | 498 kts | 137° |
| 2026-05-04 13:40 | 45.40796 | 19.59010 | 39095 ft | 498 kts | 137° |
| 2026-05-04 13:40 | 45.35580 | 19.65490 | 39097 ft | 498 kts | 137° |
| 2026-05-04 13:41 | 45.30389 | 19.71927 | 39101 ft | 498 kts | 137° |
| 2026-05-04 13:41 | 45.25160 | 19.78391 | 39099 ft | 497 kts | 137° |
| 2026-05-04 13:42 | 45.17316 | 19.88061 | 39101 ft | 497 kts | 137° |
| 2026-05-04 13:42 | 45.12087 | 19.94485 | 39101 ft | 497 kts | 137° |
| 2026-05-04 13:43 | 45.06899 | 20.00843 | 39105 ft | 497 kts | 137° |
| 2026-05-04 13:43 | 45.01668 | 20.07238 | 39103 ft | 497 kts | 137° |
| 2026-05-04 13:44 | 44.96426 | 20.13631 | 39107 ft | 497 kts | 137° |
| 2026-05-04 13:44 | 44.91183 | 20.20008 | 39095 ft | 497 kts | 137° |
| 2026-05-04 13:45 | 44.85970 | 20.26333 | 39095 ft | 497 kts | 137° |
| 2026-05-04 13:45 | 44.80719 | 20.32692 | 39099 ft | 498 kts | 137° |
| 2026-05-04 13:46 | 44.75435 | 20.39002 | 39101 ft | 498 kts | 138° |
| 2026-05-04 13:46 | 44.70125 | 20.45285 | 39105 ft | 499 kts | 138° |
| 2026-05-04 13:47 | 44.64795 | 20.51588 | 39110 ft | 500 kts | 138° |
| 2026-05-04 13:47 | 44.59460 | 20.57891 | 39110 ft | 501 kts | 138° |
| 2026-05-04 13:48 | 44.54122 | 20.64184 | 39112 ft | 501 kts | 138° |
| 2026-05-04 13:48 | 44.48777 | 20.70473 | 39112 ft | 501 kts | 138° |
| 2026-05-04 13:49 | 44.43467 | 20.76702 | 39112 ft | 501 kts | 138° |
| 2026-05-04 13:49 | 44.38116 | 20.82964 | 39110 ft | 501 kts | 138° |
| 2026-05-04 13:50 | 44.32771 | 20.89206 | 39111 ft | 501 kts | 138° |
| 2026-05-04 13:50 | 44.27407 | 20.95453 | 39112 ft | 500 kts | 138° |
| 2026-05-04 13:51 | 44.22058 | 21.01665 | 39114 ft | 499 kts | 138° |
| 2026-05-04 13:51 | 44.16728 | 21.07842 | 39113 ft | 498 kts | 138° |
| 2026-05-04 13:52 | 44.08768 | 21.17042 | 39113 ft | 498 kts | 138° |
| 2026-05-04 13:53 | 44.03435 | 21.23184 | 39115 ft | 498 kts | 138° |
| 2026-05-04 13:53 | 43.98083 | 21.29336 | 39114 ft | 499 kts | 138° |
| 2026-05-04 13:54 | 43.90046 | 21.38546 | 39111 ft | 499 kts | 138° |
| 2026-05-04 13:54 | 43.84698 | 21.44654 | 38646 ft | 499 kts | 138° |
| 2026-05-04 13:55 | 43.82014 | 21.47715 | 38371 ft | 500 kts | 138° |
| 2026-05-04 13:55 | 43.76629 | 21.53842 | 37801 ft | 502 kts | 138° |
| 2026-05-04 13:55 | 43.73923 | 21.56915 | 37535 ft | 502 kts | 138° |
| 2026-05-04 13:56 | 43.71225 | 21.59975 | 37264 ft | 503 kts | 138° |
| 2026-05-04 13:56 | 43.68671 | 21.63176 | 37021 ft | 501 kts | 131° |
| 2026-05-04 13:56 | 43.64102 | 21.70434 | 36179 ft | 500 kts | 127° |
| 2026-05-04 13:57 | 43.61868 | 21.74118 | 35599 ft | 501 kts | 127° |
| 2026-05-04 13:57 | 43.59633 | 21.77821 | 34982 ft | 502 kts | 127° |
| 2026-05-04 13:58 | 43.52919 | 21.88981 | 32830 ft | 504 kts | 126° |
| 2026-05-04 13:58 | 43.48475 | 21.96392 | 31286 ft | 504 kts | 127° |
| 2026-05-04 13:58 | 43.46235 | 22.00106 | 30531 ft | 504 kts | 128° |
| 2026-05-04 13:59 | 43.43997 | 22.03803 | 29750 ft | 503 kts | 128° |
| 2026-05-04 13:59 | 43.41759 | 22.07489 | 28901 ft | 499 kts | 129° |
| 2026-05-04 13:59 | 43.37350 | 22.14713 | 27288 ft | 485 kts | 129° |
| 2026-05-04 14:00 | 43.35200 | 22.18245 | 26533 ft | 477 kts | 129° |
| 2026-05-04 14:00 | 43.31013 | 22.25102 | 25072 ft | 463 kts | 130° |
| 2026-05-04 14:00 | 43.28951 | 22.28468 | 24358 ft | 457 kts | 130° |
| 2026-05-04 14:01 | 43.26920 | 22.31782 | 23658 ft | 452 kts | 130° |
| 2026-05-04 14:01 | 43.24898 | 22.35067 | 22841 ft | 447 kts | 130° |
| 2026-05-04 14:01 | 43.20928 | 22.41487 | 21272 ft | 437 kts | 129° |
| 2026-05-04 14:02 | 43.18966 | 22.44669 | 20509 ft | 433 kts | 129° |
| 2026-05-04 14:02 | 43.17061 | 22.47764 | 19791 ft | 430 kts | 128° |
| 2026-05-04 14:02 | 43.15143 | 22.50878 | 19067 ft | 427 kts | 128° |
| 2026-05-04 14:02 | 43.13231 | 22.53974 | 18362 ft | 423 kts | 128° |
| 2026-05-04 14:03 | 43.11345 | 22.57033 | 17562 ft | 419 kts | 127° |
| 2026-05-04 14:03 | 43.09473 | 22.60071 | 16780 ft | 414 kts | 127° |
| 2026-05-04 14:03 | 43.07627 | 22.63060 | 16011 ft | 409 kts | 127° |
| 2026-05-04 14:03 | 43.05799 | 22.66011 | 15260 ft | 403 kts | 127° |
| 2026-05-04 14:04 | 43.02224 | 22.71775 | 13821 ft | 391 kts | 127° |
| 2026-05-04 14:04 | 43.00482 | 22.74581 | 13276 ft | 385 kts | 127° |
| 2026-05-04 14:04 | 42.98749 | 22.77376 | 12795 ft | 384 kts | 127° |
| 2026-05-04 14:05 | 42.94436 | 22.81610 | 11507 ft | 392 kts | 161° |
| 2026-05-04 14:05 | 42.91797 | 22.82314 | 10826 ft | 390 kts | 169° |
| 2026-05-04 14:05 | 42.89115 | 22.82881 | 10139 ft | 387 kts | 169° |
| 2026-05-04 14:06 | 42.86470 | 22.83519 | 9371 ft | 385 kts | 167° |
| 2026-05-04 14:06 | 42.83860 | 22.84234 | 8600 ft | 381 kts | 166° |
| 2026-05-04 14:06 | 42.81297 | 22.84988 | 8119 ft | 372 kts | 166° |
| 2026-05-04 14:06 | 42.80446 | 22.85245 | 8038 ft | 366 kts | 165° |
| 2026-05-04 14:07 | 42.79946 | 22.85397 | 8006 ft | 363 kts | 165° |
| 2026-05-04 14:07 | 42.79300 | 22.85595 | 7974 ft | 357 kts | 165° |
| 2026-05-04 14:07 | 42.77769 | 22.86071 | 7953 ft | 341 kts | 165° |
| 2026-05-04 14:07 | 42.75555 | 22.86830 | 7947 ft | 315 kts | 159° |
| 2026-05-04 14:08 | 42.73752 | 22.88249 | 7815 ft | 291 kts | 133° |
| 2026-05-04 14:08 | 42.72703 | 22.90464 | 7624 ft | 271 kts | 106° |
| 2026-05-04 14:08 | 42.72366 | 22.92901 | 7445 ft | 256 kts | 93° |
| 2026-05-04 14:08 | 42.72234 | 22.95268 | 7254 ft | 247 kts | 91° |
| 2026-05-04 14:09 | 42.72041 | 22.99916 | 6518 ft | 246 kts | 90° |
| 2026-05-04 14:09 | 42.71940 | 23.02213 | 6307 ft | 239 kts | 90° |
| 2026-05-04 14:10 | 42.71703 | 23.06606 | 5953 ft | 225 kts | 91° |
| 2026-05-04 14:10 | 42.71586 | 23.08674 | 5962 ft | 210 kts | 91° |
| 2026-05-04 14:10 | 42.71469 | 23.10612 | 5953 ft | 207 kts | 92° |
| 2026-05-04 14:10 | 42.71352 | 23.12566 | 5944 ft | 208 kts | 91° |
| 2026-05-04 14:11 | 42.71248 | 23.14530 | 5944 ft | 209 kts | 90° |
| 2026-05-04 14:11 | 42.71031 | 23.18252 | 5948 ft | 187 kts | 90° |
| 2026-05-04 14:11 | 42.70929 | 23.20012 | 5942 ft | 187 kts | 91° |
| 2026-05-04 14:12 | 42.70816 | 23.21771 | 5907 ft | 186 kts | 91° |
| 2026-05-04 14:12 | 42.70745 | 23.23511 | 5693 ft | 180 kts | 89° |
| 2026-05-04 14:12 | 42.70605 | 23.26744 | 5135 ft | 163 kts | 93° |
| 2026-05-04 14:13 | 42.70481 | 23.28237 | 4872 ft | 156 kts | 92° |
| 2026-05-04 14:13 | 42.70397 | 23.29682 | 4496 ft | 150 kts | 90° |
| 2026-05-04 14:13 | 42.70306 | 23.31084 | 4082 ft | 150 kts | 91° |
| 2026-05-04 14:13 | 42.70227 | 23.32505 | 3633 ft | 151 kts | 90° |
| 2026-05-04 14:14 | 42.70132 | 23.33905 | 3269 ft | 153 kts | 94° |
| 2026-05-04 14:14 | 42.69982 | 23.36739 | 2463 ft | 149 kts | 95° |
| 2026-05-04 14:14 | 42.69862 | 23.38125 | 2135 ft | 144 kts | 92° |
| 2026-05-04 14:15 | 42.69708 | 23.40754 | 1798 ft | 133 kts | 94° |
| 2026-05-04 14:15 | 42.69599 | 23.43349 | 2669 ft | 172 kts | 88° |
| 2026-05-04 14:16 | 42.69592 | 23.47208 | 2504 ft | 201 kts | 86° |
| 2026-05-04 14:16 | 42.69579 | 23.49063 | 2530 ft | 189 kts | 89° |
| 2026-05-04 14:17 | 42.69501 | 23.52630 | 3648 ft | 198 kts | 89° |
| 2026-05-04 14:17 | 42.69441 | 23.54488 | 4012 ft | 195 kts | 85° |
| 2026-05-04 14:17 | 42.70851 | 23.57313 | 4102 ft | 188 kts | 20° |
| 2026-05-04 14:18 | 42.72116 | 23.57615 | 4113 ft | 180 kts | 5° |
| 2026-05-04 14:18 | 42.74477 | 23.58058 | 4104 ft | 166 kts | 20° |
| 2026-05-04 14:19 | 42.75554 | 23.60616 | 4119 ft | 178 kts | 97° |
| 2026-05-04 14:19 | 42.74944 | 23.62091 | 4092 ft | 186 kts | 134° |
| 2026-05-04 14:19 | 42.74171 | 23.62680 | 4117 ft | 193 kts | 159° |
| 2026-05-04 14:19 | 42.72833 | 23.62665 | 4099 ft | 194 kts | 198° |
| 2026-05-04 14:20 | 42.71737 | 23.61608 | 4100 ft | 209 kts | 233° |
| 2026-05-04 14:20 | 42.71174 | 23.59749 | 4089 ft | 217 kts | 268° |
| 2026-05-04 14:20 | 42.71291 | 23.57706 | 4108 ft | 216 kts | 284° |
| 2026-05-04 14:21 | 42.71963 | 23.53748 | 4102 ft | 215 kts | 287° |
| 2026-05-04 14:21 | 42.72331 | 23.51778 | 4105 ft | 214 kts | 287° |
| 2026-05-04 14:21 | 42.72701 | 23.49811 | 4076 ft | 215 kts | 288° |
| 2026-05-04 14:21 | 42.73057 | 23.47842 | 3951 ft | 215 kts | 287° |
| 2026-05-04 14:22 | 42.73411 | 23.45915 | 3938 ft | 216 kts | 288° |
| 2026-05-04 14:22 | 42.73772 | 23.43962 | 3944 ft | 216 kts | 288° |
| 2026-05-04 14:22 | 42.74140 | 23.41962 | 3966 ft | 214 kts | 287° |
| 2026-05-04 14:22 | 42.74497 | 23.40022 | 3946 ft | 215 kts | 287° |
| 2026-05-04 14:23 | 42.75228 | 23.36113 | 3942 ft | 202 kts | 287° |
| 2026-05-04 14:23 | 42.75564 | 23.34296 | 3946 ft | 196 kts | 288° |
| 2026-05-04 14:23 | 42.75897 | 23.32500 | 3937 ft | 195 kts | 287° |
| 2026-05-04 14:24 | 42.76228 | 23.30704 | 3946 ft | 196 kts | 288° |
| 2026-05-04 14:24 | 42.76556 | 23.28900 | 3941 ft | 196 kts | 288° |
| 2026-05-04 14:24 | 42.76880 | 23.27112 | 3935 ft | 197 kts | 287° |
| 2026-05-04 14:24 | 42.77210 | 23.25298 | 3942 ft | 198 kts | 287° |
| 2026-05-04 14:25 | 42.77555 | 23.23483 | 3939 ft | 197 kts | 287° |
| 2026-05-04 14:25 | 42.78222 | 23.19851 | 3939 ft | 199 kts | 287° |
| 2026-05-04 14:25 | 42.78562 | 23.18038 | 3941 ft | 197 kts | 288° |
| 2026-05-04 14:26 | 42.78781 | 23.16184 | 3941 ft | 200 kts | 277° |
| 2026-05-04 14:26 | 42.78868 | 23.14279 | 3943 ft | 201 kts | 276° |
| 2026-05-04 14:26 | 42.78928 | 23.12381 | 3943 ft | 200 kts | 275° |
| 2026-05-04 14:26 | 42.79001 | 23.10479 | 3943 ft | 202 kts | 276° |
| 2026-05-04 14:27 | 42.78933 | 23.08592 | 3938 ft | 198 kts | 262° |
| 2026-05-04 14:27 | 42.78359 | 23.06924 | 3950 ft | 197 kts | 231° |
| 2026-05-04 14:27 | 42.77186 | 23.06044 | 3939 ft | 196 kts | 192° |
| 2026-05-04 14:27 | 42.75864 | 23.05803 | 3960 ft | 188 kts | 184° |
| 2026-05-04 14:28 | 42.74569 | 23.05680 | 3949 ft | 184 kts | 182° |
| 2026-05-04 14:28 | 42.73300 | 23.05651 | 3933 ft | 181 kts | 172° |
| 2026-05-04 14:28 | 42.72153 | 23.06267 | 3940 ft | 178 kts | 137° |
| 2026-05-04 14:28 | 42.71530 | 23.07625 | 3943 ft | 170 kts | 104° |
| 2026-05-04 14:29 | 42.71335 | 23.10711 | 3934 ft | 162 kts | 86° |
| 2026-05-04 14:29 | 42.71261 | 23.13784 | 3935 ft | 163 kts | 88° |
| 2026-05-04 14:30 | 42.71202 | 23.15315 | 3934 ft | 161 kts | 90° |
| 2026-05-04 14:30 | 42.71119 | 23.16824 | 3944 ft | 160 kts | 91° |
| 2026-05-04 14:30 | 42.70944 | 23.19857 | 3942 ft | 161 kts | 92° |
| 2026-05-04 14:31 | 42.70846 | 23.21354 | 3938 ft | 161 kts | 92° |
| 2026-05-04 14:31 | 42.70671 | 23.24398 | 3945 ft | 161 kts | 91° |
| 2026-05-04 14:32 | 42.70554 | 23.27460 | 3839 ft | 163 kts | 92° |
| 2026-05-04 14:32 | 42.70444 | 23.29000 | 3731 ft | 163 kts | 95° |
| 2026-05-04 14:32 | 42.70321 | 23.30523 | 3578 ft | 162 kts | 91° |
| 2026-05-04 14:32 | 42.70246 | 23.32066 | 3435 ft | 165 kts | 90° |
| 2026-05-04 14:33 | 42.70161 | 23.33626 | 3244 ft | 166 kts | 92° |
| 2026-05-04 14:33 | 42.70043 | 23.35179 | 2888 ft | 166 kts | 94° |
| 2026-05-04 14:33 | 42.69971 | 23.36751 | 2462 ft | 166 kts | 94° |
| 2026-05-04 14:33 | 42.69856 | 23.38266 | 2125 ft | 158 kts | 92° |
| 2026-05-04 14:34 | 42.69763 | 23.39718 | 1832 ft | 149 kts | 91° |
| 2026-05-04 14:34 | 42.69688 | 23.41019 | 1772 ft | 130 kts | 91° |
| 2026-05-04 14:34 | 42.69631 | 23.42055 | 1761 ft | 67 kts | 95° |
| 2026-05-04 14:34 | 42.69608 | 23.42408 | 1747 ft | 26 kts | 100° |
| 2026-05-04 14:35 | 42.69547 | 23.42624 | 1764 ft | 22 kts | 120° |
| 2026-05-04 14:35 | 42.69494 | 23.42724 | 1765 ft | 11 kts | 131° |
| 2026-05-04 14:35 | 42.69424 | 23.42732 | 1764 ft | 11 kts | 220° |
| 2026-05-04 14:35 | 42.69409 | 23.42618 | 1763 ft | 14 kts | 271° |
| 2026-05-04 14:36 | 42.69417 | 23.42463 | 1760 ft | 17 kts | 274° |
| 2026-05-04 14:36 | 42.69427 | 23.42293 | 1759 ft | 20 kts | 275° |
| 2026-05-04 14:36 | 42.69435 | 23.42134 | 1762 ft | 13 kts | 274° |
| 2026-05-04 14:36 | 42.69444 | 23.41988 | 1762 ft | 18 kts | 275° |
| 2026-05-04 14:37 | 42.69453 | 23.41837 | 1763 ft | 11 kts | 274° |
| 2026-05-04 14:37 | 42.69459 | 23.41713 | 1759 ft | 13 kts | 274° |
| 2026-05-04 14:37 | 42.69468 | 23.41570 | 1759 ft | 17 kts | 275° |
| 2026-05-04 14:37 | 42.69478 | 23.41421 | 1763 ft | 17 kts | 276° |
| 2026-05-04 14:38 | 42.69484 | 23.41295 | 1762 ft | 10 kts | 266° |
| 2026-05-04 14:38 | 42.69435 | 23.41217 | 1763 ft | 13 kts | 202° |
| 2026-05-04 14:38 | 42.69335 | 23.41183 | 1762 ft | 17 kts | 192° |
| 2026-05-04 14:38 | 42.69252 | 23.41160 | 1762 ft | 11 kts | 191° |
| 2026-05-04 14:39 | 42.69188 | 23.41143 | 1763 ft | 0 kts | 191° |
| 2026-05-04 14:39 | 42.69176 | 23.41140 | 1763 ft | 5 kts | 191° |
| 2026-05-04 14:39 | 42.69137 | 23.41111 | 1765 ft | 7 kts | 231° |
| 2026-05-04 14:40 | 42.69100 | 23.40995 | 1765 ft | 2 kts | 233° |
| 2026-05-04 14:40 | 42.69081 | 23.40987 | 1763 ft | 4 kts | 185° |
| 2026-05-04 14:40 | 42.69042 | 23.41001 | 1764 ft | 8 kts | 163° |
| 2026-05-04 14:40 | 42.69013 | 23.41013 | 1762 ft | 1 kts | 162° |
| 2026-05-04 14:41 | 42.69012 | 23.41013 | 1762 ft | 0 kts | 162° |